createdAt,value
2019-06-10T00:00:16.243Z,57.02
2019-06-10T00:02:43.762Z,57.28
2019-06-10T00:05:14.157Z,57.40
2019-06-10T00:07:43.607Z,57.48
2019-06-10T00:10:13.675Z,57.10
2019-06-10T00:12:43.168Z,57.16
2019-06-10T00:15:12.984Z,56.71
2019-06-10T00:17:53.389Z,57.07
2019-06-10T00:20:15.063Z,57.17
2019-06-10T00:22:44.606Z,57.13
2019-06-10T00:25:14.329Z,57.22
2019-06-10T00:27:43.954Z,57.32
2019-06-10T00:30:13.692Z,57.36
2019-06-10T00:32:43.200Z,57.58
2019-06-10T00:35:12.751Z,57.57
2019-06-10T00:37:42.221Z,57.66
2019-06-10T00:40:14.043Z,58.03
2019-06-10T00:42:43.877Z,57.91
2019-06-10T00:45:17.832Z,58.20
2019-06-10T00:47:44.734Z,58.27
2019-06-10T00:50:14.857Z,58.28
2019-06-10T00:52:45.393Z,58.04
2019-06-10T00:55:15.229Z,57.80
2019-06-10T00:57:44.765Z,57.97
2019-06-10T01:00:24.934Z,58.15
2019-06-10T01:02:45.861Z,57.95
2019-06-10T01:05:15.784Z,57.82
2019-06-10T01:07:45.281Z,58.02
2019-06-10T01:10:15.546Z,57.99
2019-06-10T01:12:45.036Z,57.76
2019-06-10T01:15:15.394Z,57.88
2019-06-10T01:17:45.038Z,58.10
2019-06-10T01:20:16.106Z,58.10
2019-06-10T01:22:45.601Z,58.16
2019-06-10T01:25:15.138Z,58.57
2019-06-10T01:27:44.562Z,58.53
2019-06-10T01:30:20.560Z,58.35
2019-06-10T01:32:45.552Z,58.40
2019-06-10T01:35:15.820Z,58.50
2019-06-10T01:37:48.495Z,58.88
2019-06-10T01:40:20.775Z,58.53
2019-06-10T01:42:50.654Z,58.76
2019-06-10T01:45:21.294Z,58.65
2019-06-10T01:47:51.198Z,58.72
2019-06-10T01:50:21.847Z,58.83
2019-06-10T01:52:51.698Z,58.94
2019-06-10T01:55:21.989Z,58.67
2019-06-10T01:57:51.923Z,59.10
2019-06-10T02:00:27.562Z,59.01
2019-06-10T02:02:57.478Z,58.89
2019-06-10T02:05:27.006Z,59.24
2019-06-10T02:07:56.386Z,58.90
2019-06-10T02:10:25.991Z,59.04
2019-06-10T02:12:55.446Z,58.96
2019-06-10T02:15:24.891Z,58.98
2019-06-10T02:17:54.354Z,59.26
2019-06-10T02:20:24.026Z,59.10
2019-06-10T02:22:53.808Z,58.87
2019-06-10T02:25:23.279Z,59.06
2019-06-10T02:27:54.114Z,58.79
2019-06-10T02:30:38.974Z,59.11
2019-06-10T02:32:55.045Z,59.09
2019-06-10T02:35:37.565Z,58.96
2019-06-10T02:37:55.726Z,58.72
2019-06-10T02:40:31.665Z,58.74
2019-06-10T02:42:58.042Z,58.90
2019-06-10T02:45:33.770Z,58.83
2019-06-10T02:47:58.705Z,59.35
2019-06-10T02:51:15.853Z,59.10
2019-06-10T02:53:45.017Z,59.25
2019-06-10T02:56:16.836Z,59.19
2019-06-10T02:58:45.610Z,59.35
2019-06-10T03:01:16.931Z,59.13
2019-06-10T03:03:49.620Z,59.59
2019-06-10T03:06:21.207Z,59.34
2019-06-10T03:08:49.437Z,59.70
2019-06-10T03:11:20.742Z,59.65
2019-06-10T03:13:50.184Z,59.52
2019-06-10T03:16:36.623Z,59.49
2019-06-10T03:19:06.199Z,60.14
2019-06-10T03:21:35.605Z,60.54
2019-06-10T03:24:05.743Z,60.51
2019-06-10T03:26:35.242Z,62.40
2019-06-10T03:29:04.943Z,63.12
2019-06-10T03:31:41.544Z,63.58
2019-06-10T03:34:05.772Z,64.07
2019-06-10T03:36:35.324Z,64.65
2019-06-10T03:39:06.972Z,65.38
2019-06-10T03:41:36.480Z,65.83
2019-06-10T03:44:06.144Z,66.32
2019-06-10T03:46:35.675Z,66.48
2019-06-10T03:49:05.223Z,66.12
2019-06-10T03:51:34.676Z,66.83
2019-06-10T03:54:04.329Z,67.16
2019-06-10T03:56:34.301Z,67.12
2019-06-10T03:59:04.378Z,67.27
2019-06-10T04:01:34.294Z,66.60
2019-06-10T04:04:04.446Z,66.64
2019-06-10T04:06:34.219Z,66.83
2019-06-10T04:09:05.597Z,66.49
2019-06-10T04:11:35.728Z,66.52
2019-06-10T04:14:05.298Z,66.88
2019-06-10T04:16:34.817Z,66.79
2019-06-10T04:19:04.752Z,67.16
2019-06-10T04:21:34.258Z,66.64
2019-06-10T04:24:06.861Z,66.88
2019-06-10T04:26:36.302Z,67.15
2019-06-10T04:29:06.088Z,67.66
2019-06-10T04:31:35.556Z,67.35
2019-06-10T04:34:05.031Z,67.73
2019-06-10T04:36:34.460Z,68.22
2019-06-10T04:39:05.644Z,67.92
2019-06-10T04:41:35.129Z,68.32
2019-06-10T04:44:07.584Z,68.52
2019-06-10T04:46:37.302Z,68.46
2019-06-10T04:49:07.279Z,68.51
2019-06-10T04:51:36.747Z,68.81
2019-06-10T04:54:06.575Z,68.54
2019-06-10T04:56:36.180Z,69.11
2019-06-10T04:59:05.804Z,69.90
2019-06-10T05:01:36.127Z,70.20
2019-06-10T05:04:05.577Z,70.25
2019-06-10T05:06:35.141Z,69.96
2019-06-10T05:09:05.969Z,70.32
2019-06-10T05:11:35.426Z,70.35
2019-06-10T05:14:04.915Z,70.65
2019-06-10T05:16:35.868Z,70.09
2019-06-10T05:19:06.009Z,70.47
2019-06-10T05:21:36.729Z,70.45
2019-06-10T05:24:06.357Z,70.33
2019-06-10T05:26:35.778Z,70.46
2019-06-10T05:29:06.517Z,70.57
2019-06-10T05:31:36.205Z,70.85
2019-06-10T05:34:05.913Z,70.91
2019-06-10T05:36:35.409Z,70.90
2019-06-10T05:39:06.900Z,70.55
2019-06-10T05:41:36.390Z,70.72
2019-06-10T05:44:06.055Z,70.71
2019-06-10T05:46:35.670Z,70.52
2019-06-10T05:49:05.247Z,70.82
2019-06-10T05:51:35.385Z,71.73
2019-06-10T05:54:07.104Z,71.15
2019-06-10T05:56:36.603Z,70.93
2019-06-10T05:59:07.261Z,70.14
2019-06-10T06:01:38.617Z,70.62
2019-06-10T06:04:08.555Z,70.78
2019-06-10T06:06:41.507Z,70.89
2019-06-10T06:09:09.512Z,71.06
2019-06-10T06:11:39.104Z,71.10
2019-06-10T06:14:08.646Z,70.55
2019-06-10T06:16:38.399Z,70.72
2019-06-10T06:19:08.041Z,71.34
2019-06-10T06:21:42.709Z,71.53
2019-06-10T06:24:08.904Z,71.52
2019-06-10T06:26:39.703Z,71.37
2019-06-10T06:29:09.345Z,71.65
2019-06-10T06:31:39.003Z,71.79
2019-06-10T06:34:08.733Z,71.87
2019-06-10T06:36:38.408Z,71.21
2019-06-10T06:39:09.039Z,71.26
2019-06-10T06:41:39.098Z,71.09
2019-06-10T06:44:08.811Z,71.35
2019-06-10T06:46:39.681Z,71.53
2019-06-10T06:49:09.606Z,70.72
2019-06-10T06:51:51.845Z,70.99
2019-06-10T06:54:12.483Z,70.84
2019-06-10T06:56:43.727Z,70.88
2019-06-10T06:59:13.558Z,71.01
2019-06-10T07:01:44.487Z,70.90
2019-06-10T07:04:14.279Z,70.50
2019-06-10T07:06:44.178Z,69.59
2019-06-10T07:09:14.127Z,69.17
2019-06-10T07:11:45.321Z,68.47
2019-06-10T07:14:15.172Z,68.28
2019-06-10T07:16:46.565Z,67.59
2019-06-10T07:19:16.041Z,67.83
2019-06-10T07:22:05.603Z,68.05
2019-06-10T07:24:16.823Z,68.18
2019-06-10T07:26:52.123Z,67.45
2019-06-10T07:29:17.456Z,67.20
2019-06-10T07:31:50.258Z,67.77
2019-06-10T07:34:18.794Z,67.65
2019-06-10T07:36:48.550Z,67.53
2019-06-10T07:39:18.044Z,67.67
2019-06-10T07:41:48.097Z,68.08
2019-06-10T07:44:17.632Z,68.12
2019-06-10T07:46:47.129Z,68.21
2019-06-10T07:49:16.946Z,68.53
2019-06-10T07:51:46.734Z,67.47
2019-06-10T07:54:16.412Z,67.68
2019-06-10T07:56:50.297Z,66.60
2019-06-10T07:59:17.118Z,66.56
2019-06-10T08:01:51.357Z,66.37
2019-06-10T08:04:17.961Z,65.53
2019-06-10T08:06:49.893Z,65.33
2019-06-10T08:09:18.832Z,65.59
2019-06-10T08:11:48.845Z,65.53
2019-06-10T08:14:18.365Z,65.61
2019-06-10T08:16:48.717Z,65.68
2019-06-10T08:19:33.854Z,65.13
2019-06-10T08:21:49.967Z,64.33
2019-06-10T08:24:22.031Z,64.18
2019-06-10T08:26:53.046Z,63.84
2019-06-10T08:29:23.417Z,64.47
2019-06-10T08:31:53.538Z,63.98
2019-06-10T08:34:23.235Z,64.97
2019-06-10T08:36:54.360Z,64.81
2019-06-10T08:39:25.805Z,64.68
2019-06-10T08:41:55.352Z,64.83
2019-06-10T08:44:24.886Z,65.34
2019-06-10T08:46:54.570Z,65.47
2019-06-10T08:49:24.149Z,65.04
2019-06-10T08:51:53.905Z,65.77
2019-06-10T08:54:24.128Z,66.19
2019-06-10T08:56:54.188Z,66.89
2019-06-10T08:59:23.872Z,66.28
2019-06-10T09:01:56.685Z,66.18
2019-06-10T09:04:25.020Z,66.26
2019-06-10T09:06:54.468Z,66.34
2019-06-10T09:09:24.083Z,66.36
2019-06-10T09:11:54.733Z,66.57
2019-06-10T09:14:24.486Z,66.32
2019-06-10T09:16:54.562Z,66.44
2019-06-10T09:19:25.150Z,66.33
2019-06-10T09:21:56.305Z,65.73
2019-06-10T09:24:26.479Z,65.61
2019-06-10T09:26:55.993Z,66.08
2019-06-10T09:29:27.371Z,65.66
2019-06-10T09:31:57.018Z,65.43
2019-06-10T09:34:26.522Z,65.52
2019-06-10T09:36:57.019Z,65.38
2019-06-10T09:39:26.790Z,65.08
2019-06-10T09:42:01.482Z,64.67
2019-06-10T09:44:27.792Z,64.63
2019-06-10T09:47:01.053Z,64.25
2019-06-10T09:49:33.013Z,63.64
2019-06-10T09:52:03.444Z,62.93
2019-06-10T09:54:33.720Z,61.72
2019-06-10T09:57:03.380Z,61.73
2019-06-10T09:59:32.978Z,61.57
2019-06-10T10:02:06.141Z,61.07
2019-06-10T10:04:37.278Z,60.36
2019-06-10T10:07:05.165Z,60.00
2019-06-10T10:09:37.114Z,59.57
2019-06-10T10:12:06.754Z,59.06
2019-06-10T10:14:36.201Z,58.04
2019-06-10T10:17:05.725Z,56.77
2019-06-10T10:19:35.226Z,55.22
2019-06-10T10:22:05.118Z,55.53
2019-06-10T10:24:35.508Z,54.43
2019-06-10T10:27:09.038Z,52.88
2019-06-10T10:29:36.389Z,52.96
2019-06-10T10:32:06.150Z,52.66
2019-06-10T10:34:35.622Z,51.58
2019-06-10T10:37:05.192Z,49.71
2019-06-10T10:39:35.334Z,49.43
2019-06-10T10:42:05.258Z,49.79
2019-06-10T10:44:35.039Z,50.25
2019-06-10T10:47:05.538Z,49.40
2019-06-10T10:49:35.183Z,49.53
2019-06-10T10:52:05.310Z,49.68
2019-06-10T10:54:36.757Z,50.21
2019-06-10T10:57:06.449Z,50.08
2019-06-10T10:59:35.957Z,50.32
2019-06-10T11:02:05.970Z,50.72
2019-06-10T11:04:35.951Z,51.57
2019-06-10T11:07:05.463Z,51.43
2019-06-10T11:09:35.118Z,52.06
2019-06-10T11:12:05.226Z,52.65
2019-06-10T11:14:35.366Z,52.37
2019-06-10T11:17:05.142Z,52.10
2019-06-10T11:19:35.085Z,51.99
2019-06-10T11:22:05.035Z,51.77
2019-06-10T11:24:40.753Z,51.24
2019-06-10T11:27:06.392Z,50.95
2019-06-10T11:29:35.887Z,50.67
2019-06-10T11:32:05.975Z,50.60
2019-06-10T11:34:35.445Z,50.76
2019-06-10T11:37:05.080Z,50.88
2019-06-10T11:39:38.706Z,50.42
2019-06-10T11:42:07.542Z,50.53
2019-06-10T11:44:37.396Z,50.66
2019-06-10T11:47:07.909Z,51.49
2019-06-10T11:49:37.741Z,51.12
2019-06-10T11:52:07.575Z,50.52
2019-06-10T11:54:53.716Z,50.42
2019-06-10T11:57:12.561Z,51.41
2019-06-10T11:59:43.449Z,51.46
2019-06-10T12:02:13.854Z,52.73
2019-06-10T12:04:43.349Z,52.77
2019-06-10T12:07:13.052Z,52.72
2019-06-10T12:09:42.724Z,52.73
2019-06-10T12:12:13.623Z,52.31
2019-06-10T12:14:43.318Z,51.95
2019-06-10T12:17:24.531Z,52.69
2019-06-10T12:19:44.092Z,52.28
2019-06-10T12:22:14.227Z,52.32
2019-06-10T12:24:46.887Z,53.09
2019-06-10T12:27:16.518Z,53.24
2019-06-10T12:29:46.012Z,53.60
2019-06-10T12:32:18.680Z,53.39
2019-06-10T12:34:48.247Z,53.25
2019-06-10T12:37:17.758Z,53.52
2019-06-10T12:39:48.167Z,52.92
2019-06-10T12:42:17.678Z,53.19
2019-06-10T12:44:47.361Z,53.13
2019-06-10T12:47:16.991Z,53.46
2019-06-10T12:49:47.034Z,54.41
2019-06-10T12:52:18.001Z,54.28
2019-06-10T12:54:47.541Z,53.36
2019-06-10T12:57:17.186Z,53.17
2019-06-10T12:59:46.792Z,53.65
2019-06-10T13:02:23.393Z,53.65
2019-06-10T13:04:48.905Z,53.35
2019-06-10T13:07:19.160Z,53.63
2019-06-10T13:09:48.668Z,53.98
2019-06-10T13:12:18.158Z,54.09
2019-06-10T13:14:47.575Z,53.79
2019-06-10T13:17:17.198Z,53.74
2019-06-10T13:19:46.655Z,53.13
2019-06-10T13:22:16.116Z,53.28
2019-06-10T13:24:45.758Z,53.02
2019-06-10T13:27:15.262Z,53.02
2019-06-10T13:29:44.716Z,52.55
2019-06-10T13:32:14.388Z,52.52
2019-06-10T13:34:43.930Z,52.47
2019-06-10T13:37:16.111Z,52.82
2019-06-10T13:39:45.125Z,51.99
2019-06-10T13:42:14.832Z,52.16
2019-06-10T13:44:44.611Z,52.54
2019-06-10T13:47:14.983Z,52.38
2019-06-10T13:49:44.653Z,52.52
2019-06-10T13:52:16.921Z,52.25
2019-06-10T13:54:46.198Z,52.07
2019-06-10T13:57:16.230Z,53.12
2019-06-10T13:59:46.547Z,53.61
2019-06-10T14:02:16.868Z,54.16
2019-06-10T14:04:46.705Z,54.48
2019-06-10T14:07:17.440Z,55.41
2019-06-10T14:09:47.314Z,55.70
2019-06-10T14:12:18.455Z,55.82
2019-06-10T14:14:48.173Z,55.98
2019-06-10T14:17:19.643Z,55.82
2019-06-10T14:19:55.151Z,55.88
2019-06-10T14:22:26.681Z,55.81
2019-06-10T14:24:56.357Z,56.35
2019-06-10T14:27:25.969Z,56.58
2019-06-10T14:29:55.651Z,56.53
2019-06-10T14:32:25.230Z,56.55
2019-06-10T14:34:54.766Z,56.84
2019-06-10T14:37:38.505Z,57.23
2019-06-10T14:39:55.578Z,57.80
2019-06-10T14:42:25.560Z,57.80
2019-06-10T14:44:55.044Z,57.61
2019-06-10T14:47:24.772Z,57.66
2019-06-10T14:49:54.248Z,57.40
2019-06-10T14:52:25.908Z,57.27
2019-06-10T14:54:57.567Z,57.23
2019-06-10T14:57:27.442Z,57.52
2019-06-10T14:59:56.944Z,57.69
2019-06-10T15:02:26.670Z,57.92
2019-06-10T15:04:56.470Z,57.52
2019-06-10T15:07:26.104Z,57.58
2019-06-10T15:09:56.923Z,57.81
2019-06-10T15:12:26.668Z,57.60
2019-06-10T15:14:56.585Z,57.29
2019-06-10T15:17:28.600Z,56.96
2019-06-10T15:19:58.110Z,56.47
2019-06-10T15:22:27.606Z,56.61
2019-06-10T15:24:57.389Z,56.74
2019-06-10T15:27:30.841Z,56.79
2019-06-10T15:29:58.190Z,56.93
2019-06-10T15:32:34.569Z,56.95
2019-06-10T15:34:58.928Z,57.34
2019-06-10T15:37:29.070Z,57.75
2019-06-10T15:39:58.888Z,57.88
2019-06-10T15:42:33.172Z,57.59
2019-06-10T15:45:02.533Z,57.12
2019-06-10T15:47:32.338Z,57.19
2019-06-10T15:50:03.127Z,57.30
2019-06-10T15:52:32.865Z,57.13
2019-06-10T15:55:04.154Z,56.82
2019-06-10T15:57:40.598Z,56.86
2019-06-10T16:00:11.146Z,56.79
2019-06-10T16:02:37.640Z,57.17
2019-06-10T16:05:07.197Z,57.12
2019-06-10T16:07:36.721Z,56.78
2019-06-10T16:10:07.038Z,56.21
2019-06-10T16:12:36.591Z,56.49
2019-06-10T16:15:06.765Z,56.65
2019-06-10T16:17:36.278Z,56.68
2019-06-10T16:20:06.431Z,56.71
2019-06-10T16:22:35.908Z,56.46
2019-06-10T16:25:06.700Z,57.13
2019-06-10T16:27:47.332Z,56.99
2019-06-10T16:30:08.288Z,56.74
2019-06-10T16:32:37.842Z,56.61
2019-06-10T16:35:33.740Z,56.62
2019-06-10T16:38:03.298Z,56.89
2019-06-10T16:40:32.728Z,57.38
2019-06-10T16:43:02.239Z,57.56
2019-06-10T16:45:34.041Z,57.41
2019-06-10T16:48:03.250Z,57.41
2019-06-10T16:50:33.979Z,57.68
2019-06-10T16:53:03.873Z,57.45
2019-06-10T16:55:33.450Z,57.34
2019-06-10T16:58:02.967Z,57.72
2019-06-10T17:00:34.728Z,58.11
2019-06-10T17:03:03.541Z,58.04
2019-06-10T17:05:33.230Z,57.94
2019-06-10T17:08:03.356Z,58.15
2019-06-10T17:10:34.419Z,58.78
2019-06-10T17:13:06.030Z,59.15
2019-06-10T17:15:35.953Z,59.90
2019-06-10T17:18:06.109Z,60.48
2019-06-10T17:20:35.673Z,60.12
2019-06-10T17:23:28.934Z,60.08
2019-06-10T17:25:57.363Z,60.44
2019-06-10T17:28:31.611Z,60.43
2019-06-10T17:30:59.025Z,60.94
2019-06-10T17:33:30.457Z,61.70
2019-06-10T17:35:59.733Z,61.86
2019-06-10T17:38:29.319Z,61.92
2019-06-10T17:40:58.711Z,62.28
2019-06-10T17:43:29.326Z,62.11
2019-06-10T17:45:59.153Z,62.10
2019-06-10T17:48:31.350Z,62.34
2019-06-10T17:51:04.133Z,62.46
2019-06-10T17:53:35.064Z,62.33
2019-06-10T17:56:04.664Z,62.45
2019-06-10T17:58:50.110Z,62.96
2019-06-10T18:01:05.888Z,63.33
2019-06-10T18:03:39.619Z,63.38
2019-06-10T18:06:07.074Z,63.55
2019-06-10T18:08:40.519Z,63.86
2019-06-10T18:11:08.029Z,64.40
2019-06-10T18:13:37.802Z,65.12
2019-06-10T18:16:07.588Z,65.41
2019-06-10T18:18:38.680Z,66.17
2019-06-10T18:21:08.261Z,66.34
2019-06-10T18:23:38.040Z,66.86
2019-06-10T18:26:07.583Z,67.64
2019-06-10T18:28:57.808Z,67.65
2019-06-10T18:31:08.445Z,67.50
2019-06-10T18:33:38.152Z,67.88
2019-06-10T18:36:07.583Z,68.16
2019-06-10T18:38:37.424Z,68.47
2019-06-10T18:41:09.255Z,68.93
2019-06-10T18:43:39.923Z,68.74
2019-06-10T18:46:12.526Z,68.98
2019-06-10T18:48:43.090Z,68.98
2019-06-10T18:51:12.652Z,69.26
2019-06-10T18:53:42.735Z,70.20
2019-06-10T18:56:15.578Z,70.21
2019-06-10T18:58:47.625Z,70.94
2019-06-10T19:01:17.505Z,71.28
2019-06-10T19:03:47.019Z,71.49
2019-06-10T19:06:16.674Z,71.44
2019-06-10T19:08:46.644Z,70.99
2019-06-10T19:11:16.352Z,71.38
2019-06-10T19:13:48.874Z,71.49
2019-06-10T19:16:20.546Z,71.47
2019-06-10T19:18:52.853Z,71.66
2019-06-10T19:21:21.545Z,71.46
2019-06-10T19:23:53.098Z,71.46
2019-06-10T19:26:22.240Z,71.98
2019-06-10T19:28:53.336Z,71.97
2019-06-10T19:31:23.274Z,71.89
2019-06-10T19:33:52.779Z,71.96
2019-06-10T19:36:23.160Z,72.37
2019-06-10T19:38:55.248Z,72.07
2019-06-10T19:41:35.782Z,72.45
2019-06-10T19:44:02.581Z,72.24
2019-06-10T19:46:35.714Z,72.28
2019-06-10T19:49:07.215Z,72.16
2019-06-10T19:51:37.419Z,72.28
2019-06-10T19:54:07.290Z,72.41
2019-06-10T19:56:37.170Z,72.64
2019-06-10T19:59:06.965Z,73.06
2019-06-10T20:01:41.888Z,73.44
2019-06-10T20:04:10.385Z,73.68
2019-06-10T20:06:43.527Z,74.04
2019-06-10T20:09:15.436Z,74.19
2019-06-10T20:11:47.542Z,74.12
2019-06-10T20:14:17.252Z,73.92
2019-06-10T20:16:48.122Z,74.32
2019-06-10T20:19:18.064Z,74.28
2019-06-10T20:21:48.955Z,74.42
2019-06-10T20:24:19.212Z,74.68
2019-06-10T20:26:48.786Z,74.63
2019-06-10T20:29:18.689Z,74.68
2019-06-10T20:31:49.014Z,74.69
2019-06-10T20:34:19.665Z,74.64
2019-06-10T20:36:50.174Z,74.26
2019-06-10T20:39:24.455Z,74.28
2019-06-10T20:41:53.162Z,73.92
2019-06-10T20:44:22.437Z,74.02
2019-06-10T20:46:52.954Z,74.56
2019-06-10T20:49:22.713Z,74.70
2019-06-10T20:52:06.694Z,74.58
2019-06-10T20:54:23.499Z,74.95
2019-06-10T20:56:53.605Z,75.29
2019-06-10T20:59:26.075Z,75.62
2019-06-10T21:01:54.907Z,75.65
2019-06-10T21:04:24.500Z,75.31
2019-06-10T21:06:56.483Z,74.94
2019-06-10T21:09:27.163Z,75.22
2019-06-10T21:11:56.786Z,75.64
2019-06-10T21:14:26.570Z,75.62
2019-06-10T21:16:56.338Z,75.65
2019-06-10T21:19:26.320Z,75.45
2019-06-10T21:21:55.908Z,75.86
2019-06-10T21:24:25.675Z,75.65
2019-06-10T21:26:55.191Z,75.37
2019-06-10T21:29:25.061Z,75.77
2019-06-10T21:31:55.123Z,75.66
2019-06-10T21:34:24.680Z,75.94
2019-06-10T21:36:54.559Z,75.54
2019-06-10T21:39:24.513Z,75.77
2019-06-10T21:41:54.785Z,76.91
2019-06-10T21:44:24.380Z,77.11
2019-06-10T21:46:53.978Z,76.61
2019-06-10T21:49:25.288Z,76.83
2019-06-10T21:51:57.293Z,77.10
2019-06-10T21:54:27.215Z,77.87
2019-06-10T21:56:56.684Z,79.00
2019-06-10T21:59:26.328Z,80.34
2019-06-10T22:01:55.961Z,80.96
2019-06-10T22:04:25.431Z,80.61
2019-06-10T22:06:56.155Z,80.69
2019-06-10T22:09:25.888Z,80.95
2019-06-10T22:11:55.902Z,81.05
2019-06-10T22:14:25.587Z,80.42
2019-06-10T22:16:56.524Z,80.63
2019-06-10T22:19:26.123Z,80.19
2019-06-10T22:21:56.717Z,80.30
2019-06-10T22:24:26.332Z,80.22
2019-06-10T22:26:55.884Z,81.15
2019-06-10T22:29:25.378Z,81.51
2019-06-10T22:31:56.999Z,81.80
2019-06-10T22:34:29.266Z,81.47
2019-06-10T22:36:58.774Z,81.79
2019-06-10T22:39:28.268Z,81.97
2019-06-10T22:41:57.794Z,82.29
2019-06-10T22:44:27.307Z,81.98
2019-06-10T22:46:57.378Z,81.43
2019-06-10T22:49:27.498Z,81.32
2019-06-10T22:51:58.572Z,82.03
2019-06-10T22:54:28.182Z,82.19
2019-06-10T22:56:58.417Z,82.71
2019-06-10T22:59:28.182Z,83.17
2019-06-10T23:01:58.788Z,83.13
2019-06-10T23:04:28.812Z,83.06
2019-06-10T23:06:59.619Z,83.18
2019-06-10T23:09:29.702Z,83.10
2019-06-10T23:11:59.303Z,83.28
2019-06-10T23:14:28.695Z,83.16
2019-06-10T23:16:59.932Z,82.49
2019-06-10T23:19:29.418Z,82.57
2019-06-10T23:22:00.114Z,82.66
2019-06-10T23:24:32.191Z,82.37
2019-06-10T23:27:03.130Z,82.63
2019-06-10T23:29:32.405Z,82.94
2019-06-10T23:32:06.838Z,82.88
2019-06-10T23:34:33.285Z,83.24
2019-06-10T23:37:02.717Z,83.33
2019-06-10T23:39:33.588Z,83.41
2019-06-10T23:42:04.217Z,83.46
2019-06-10T23:44:34.014Z,82.72
2019-06-10T23:47:06.104Z,83.11
2019-06-10T23:49:36.492Z,83.31
2019-06-10T23:52:06.418Z,82.64
2019-06-10T23:54:48.647Z,82.50
2019-06-10T23:57:18.198Z,82.49
2019-06-10T23:59:47.675Z,82.96
